Jennie B — MCQV9 — position and weather

sailwx.info

Track history (hours):
 
Tides and Currents Weather Stations Pressure Air Temp Water Temp Dewpoint Dewpoint Depression Visibility Wind Speed Wind Dir Waves Ship Positions

Jennie B

Last reported at 2017-Sep-01 14:21 UTC. Time now 2017-Oct-18 20:30 UTC.
Position N 47°39' W 002°45'.
Warning: this ship's position is 47 days out of date.

Length 12 m.

Type: Sailing vessel. MMSI: 235013585.

Date/timePositionNaut miles runAvg speedWind from/ knotsBaromVisibWave heightAir tempDewpointWater temp
2017-Sep-01 14:21N 47°39' W 002°45'0 0.0
2017-Sep-01 14:00N 47°39' W 002°45'1 2.7
2017-Sep-01 13:30N 47°38' W 002°46'3 5.7
2017-Sep-01 13:00N 47°37' W 002°50'3 6.0
2017-Sep-01 12:30N 47°35' W 002°53'3 6.3
2017-Sep-01 12:00N 47°32' W 002°55'3 6.4
2017-Sep-01 11:30N 47°29' W 002°52'3 6.1
2017-Sep-01 10:59N 47°28' W 002°48'2 4.1
2017-Sep-01 10:30N 47°28' W 002°45'3 5.0
2017-Sep-01 10:00N 47°29' W 002°41'3 5.9
2017-Sep-01 09:29N 47°29' W 002°37'3 5.2
2017-Sep-01 09:00N 47°29' W 002°33'3 5.3
2017-Sep-01 08:30N 47°30' W 002°29'  
2017-Aug-26 15:05N 47°30' W 002°32'1 6.3
2017-Aug-26 14:59N 47°30' W 002°33'6 6.1
2017-Aug-26 14:00N 47°28' W 002°41'3 6.2
2017-Aug-26 13:30N 47°27' W 002°46'3 6.0
2017-Aug-26 13:00N 47°26' W 002°50'3 5.8
2017-Aug-26 12:30N 47°26' W 002°54'3 5.5
2017-Aug-26 12:00N 47°25' W 002°58'2 0.5
2017-Aug-26 08:51N 47°24' W 002°60'2 4.5
2017-Aug-26 08:23N 47°23' W 003°03'2 4.9
2017-Aug-26 08:00N 47°22' W 003°05'2 4.9
2017-Aug-26 07:30N 47°21' W 003°08'  
2017-Aug-23 15:49N 47°21' W 003°09'6 4.7
2017-Aug-23 14:29N 47°26' W 003°04'4 4.0
2017-Aug-23 13:30N 47°28' W 002°59'2 4.7
2017-Aug-23 13:00N 47°30' W 002°57'2 4.8
2017-Aug-23 12:30N 47°32' W 002°55'1 0.1
2017-Aug-22 18:31N 47°33' W 002°54'0 0.3
2017-Aug-22 18:20N 47°33' W 002°54'1 3.4
2017-Aug-22 17:59N 47°33' W 002°55'2 5.0
2017-Aug-22 17:30N 47°35' W 002°53'2 4.4
2017-Aug-22 17:00N 47°37' W 002°50'3 5.0
2017-Aug-22 16:30N 47°37' W 002°47'2 3.2
2017-Aug-22 15:59N 47°39' W 002°46'0 0.7
2017-Aug-22 15:25N 47°39' W 002°45'  
Track history (hours):
 
Tides and Currents Weather Stations Pressure Air Temp Water Temp Dewpoint Dewpoint Depression Visibility Wind Speed Wind Dir Waves Ship Positions

Jennie B

Last reported at 2017-Sep-01 14:21 UTC. Time now 2017-Oct-18 20:30 UTC.
Position N 47°39' W 002°45'.
Warning: this ship's position is 47 days out of date.

Length 12 m.

Type: Sailing vessel. MMSI: 235013585.

Date/timePositionNaut miles runAvg speedWind from/ knotsBaromVisibWave heightAir tempDewpointWater temp
2017-Sep-01 14:21N 47°39' W 002°45'0 0.0
2017-Sep-01 14:00N 47°39' W 002°45'1 2.7
2017-Sep-01 13:30N 47°38' W 002°46'3 5.7
2017-Sep-01 13:00N 47°37' W 002°50'3 6.0
2017-Sep-01 12:30N 47°35' W 002°53'3 6.3
2017-Sep-01 12:00N 47°32' W 002°55'3 6.4
2017-Sep-01 11:30N 47°29' W 002°52'3 6.1
2017-Sep-01 10:59N 47°28' W 002°48'2 4.1
2017-Sep-01 10:30N 47°28' W 002°45'3 5.0
2017-Sep-01 10:00N 47°29' W 002°41'3 5.9
2017-Sep-01 09:29N 47°29' W 002°37'3 5.2
2017-Sep-01 09:00N 47°29' W 002°33'3 5.3
2017-Sep-01 08:30N 47°30' W 002°29'  
2017-Aug-26 15:05N 47°30' W 002°32'1 6.3
2017-Aug-26 14:59N 47°30' W 002°33'6 6.1
2017-Aug-26 14:00N 47°28' W 002°41'3 6.2
2017-Aug-26 13:30N 47°27' W 002°46'3 6.0
2017-Aug-26 13:00N 47°26' W 002°50'3 5.8
2017-Aug-26 12:30N 47°26' W 002°54'3 5.5
2017-Aug-26 12:00N 47°25' W 002°58'2 0.5
2017-Aug-26 08:51N 47°24' W 002°60'2 4.5
2017-Aug-26 08:23N 47°23' W 003°03'2 4.9
2017-Aug-26 08:00N 47°22' W 003°05'2 4.9
2017-Aug-26 07:30N 47°21' W 003°08'  
2017-Aug-23 15:49N 47°21' W 003°09'6 4.7
2017-Aug-23 14:29N 47°26' W 003°04'4 4.0
2017-Aug-23 13:30N 47°28' W 002°59'2 4.7
2017-Aug-23 13:00N 47°30' W 002°57'2 4.8
2017-Aug-23 12:30N 47°32' W 002°55'1 0.1
2017-Aug-22 18:31N 47°33' W 002°54'0 0.3
2017-Aug-22 18:20N 47°33' W 002°54'1 3.4
2017-Aug-22 17:59N 47°33' W 002°55'2 5.0
2017-Aug-22 17:30N 47°35' W 002°53'2 4.4
2017-Aug-22 17:00N 47°37' W 002°50'3 5.0
2017-Aug-22 16:30N 47°37' W 002°47'2 3.2
2017-Aug-22 15:59N 47°39' W 002°46'0 0.7
2017-Aug-22 15:25N 47°39' W 002°45'  

Dump ship's entire track history